createdAt,value
2019-03-17T00:00:31.497Z,25.2
2019-03-17T00:01:21.230Z,25.1
2019-03-17T00:02:12.375Z,25
2019-03-17T00:03:00.808Z,25
2019-03-17T00:03:51.948Z,24.9
2019-03-17T00:04:41.933Z,24.9
2019-03-17T00:05:32.055Z,24.8
2019-03-17T00:06:22.445Z,24.8
2019-03-17T00:07:11.909Z,24.8
2019-03-17T00:08:01.650Z,24.8
2019-03-17T00:08:52.817Z,24.8
2019-03-17T00:09:40.974Z,24.8
2019-03-17T00:10:32.947Z,24.8
2019-03-17T00:11:22.757Z,24.8
2019-03-17T00:12:12.515Z,24.8
2019-03-17T00:13:02.892Z,24.8
2019-03-17T00:13:53.461Z,24.8
2019-03-17T00:14:42.424Z,24.7
2019-03-17T00:15:33.297Z,24.7
2019-03-17T00:16:23.364Z,24.7
2019-03-17T00:17:12.684Z,24.6
2019-03-17T00:18:03.311Z,24.6
2019-03-17T00:18:52.527Z,24.6
2019-03-17T00:19:43.672Z,24.6
2019-03-17T00:20:33.406Z,24.6
2019-03-17T00:21:23.146Z,24.5
2019-03-17T00:22:13.944Z,24.5
2019-03-17T00:23:03.335Z,24.3
2019-03-17T00:23:54.162Z,24.1
2019-03-17T00:24:42.834Z,24.1
2019-03-17T00:25:33.430Z,24
2019-03-17T00:26:23.808Z,23.9
2019-03-17T00:27:13.926Z,23.9
2019-03-17T00:28:03.082Z,23.9
2019-03-17T00:28:53.719Z,24
2019-03-17T00:29:43.209Z,24.1
2019-03-17T00:30:33.791Z,24.2
2019-03-17T00:31:31.426Z,24.3
2019-03-17T00:32:13.449Z,24.5
2019-03-17T00:33:04.001Z,24.6
2019-03-17T00:33:54.138Z,24.8
2019-03-17T00:34:54.826Z,24.9
2019-03-17T00:35:34.200Z,25.1
2019-03-17T00:36:24.246Z,25.2
2019-03-17T00:37:15.119Z,25.3
2019-03-17T00:38:04.753Z,25.4
2019-03-17T00:38:53.857Z,25.4
2019-03-17T00:39:45.013Z,25.6
2019-03-17T00:40:34.632Z,25.7
2019-03-17T00:41:24.585Z,25.8
2019-03-17T00:42:15.288Z,25.7
2019-03-17T00:43:03.885Z,25.6
2019-03-17T00:43:55.668Z,25.5
2019-03-17T00:44:44.893Z,25.4
2019-03-17T00:45:34.622Z,25.3
2019-03-17T00:46:25.003Z,25.2
2019-03-17T00:47:17.500Z,25.1
2019-03-17T00:48:04.558Z,25.1
2019-03-17T00:48:55.707Z,25
2019-03-17T00:49:46.238Z,24.9
2019-03-17T00:50:36.100Z,24.8
2019-03-17T00:51:24.285Z,24.6
2019-03-17T00:52:14.705Z,24.5
2019-03-17T00:53:04.655Z,24.4
2019-03-17T00:53:55.277Z,24.4
2019-03-17T00:54:45.085Z,24.3
2019-03-17T00:55:34.854Z,24.3
2019-03-17T00:56:24.912Z,24.2
2019-03-17T00:57:15.033Z,24.2
2019-03-17T00:58:07.101Z,24.1
2019-03-17T00:58:55.265Z,24.1
2019-03-17T00:59:46.472Z,24.1
2019-03-17T01:00:35.712Z,24.1
2019-03-17T01:01:25.534Z,24.1
2019-03-17T01:02:16.142Z,23.9
2019-03-17T01:03:06.177Z,23.9
2019-03-17T01:03:56.746Z,23.8
2019-03-17T01:04:58.548Z,23.8
2019-03-17T01:05:38.039Z,23.8
2019-03-17T01:06:26.682Z,23.6
2019-03-17T01:07:16.233Z,23.6
2019-03-17T01:08:06.819Z,23.6
2019-03-17T01:08:56.286Z,23.5
2019-03-17T01:09:47.169Z,23.5
2019-03-17T01:10:37.018Z,23.6
2019-03-17T01:11:25.644Z,23.7
2019-03-17T01:12:16.579Z,23.8
2019-03-17T01:13:06.598Z,23.8
2019-03-17T01:13:56.711Z,23.8
2019-03-17T01:14:47.256Z,23.9
2019-03-17T01:15:37.587Z,23.9
2019-03-17T01:16:27.741Z,24
2019-03-17T01:17:17.463Z,24.1
2019-03-17T01:18:07.621Z,24.3
2019-03-17T01:18:57.308Z,24.4
2019-03-17T01:19:47.345Z,24.6
2019-03-17T01:20:37.108Z,24.7
2019-03-17T01:21:27.748Z,24.8
2019-03-17T01:22:17.491Z,24.9
2019-03-17T01:23:06.812Z,25.1
2019-03-17T01:23:57.097Z,25.3
2019-03-17T01:24:48.533Z,25.3
2019-03-17T01:25:37.853Z,25.4
2019-03-17T01:26:27.035Z,25.6
2019-03-17T01:27:18.208Z,25.7
2019-03-17T01:28:07.780Z,25.6
2019-03-17T01:28:57.569Z,25.5
2019-03-17T01:29:46.453Z,25.4
2019-03-17T01:30:38.364Z,25.3
2019-03-17T01:31:28.458Z,25.2
2019-03-17T01:32:18.292Z,25.1
2019-03-17T01:33:08.307Z,25.1
2019-03-17T01:33:57.803Z,25
2019-03-17T01:34:48.392Z,24.9
2019-03-17T01:35:39.133Z,24.9
2019-03-17T01:36:28.030Z,24.9
2019-03-17T01:37:18.554Z,24.8
2019-03-17T01:38:08.775Z,24.8
2019-03-17T01:38:59.019Z,24.8
2019-03-17T01:39:48.387Z,24.8
2019-03-17T01:40:38.147Z,24.8
2019-03-17T01:41:27.167Z,24.8
2019-03-17T01:42:21.542Z,24.8
2019-03-17T01:43:08.472Z,24.8
2019-03-17T01:43:58.914Z,24.8
2019-03-17T01:44:49.201Z,24.8
2019-03-17T01:45:39.249Z,24.8
2019-03-17T01:46:29.654Z,24.8
2019-03-17T01:47:19.889Z,24.8
2019-03-17T01:48:09.909Z,24.8
2019-03-17T01:48:59.123Z,24.8
2019-03-17T01:49:49.464Z,24.8
2019-03-17T01:50:39.532Z,24.8
2019-03-17T01:51:29.617Z,24.7
2019-03-17T01:52:20.221Z,24.7
2019-03-17T01:53:10.081Z,24.7
2019-03-17T01:53:59.509Z,24.6
2019-03-17T01:54:50.118Z,24.3
2019-03-17T01:55:39.881Z,24.2
2019-03-17T01:56:29.398Z,24.1
2019-03-17T01:57:20.011Z,24.1
2019-03-17T01:58:10.059Z,24
2019-03-17T01:58:59.843Z,24
2019-03-17T01:59:50.241Z,24.1
2019-03-17T02:00:40.087Z,24.1
2019-03-17T02:01:30.361Z,24.3
2019-03-17T02:02:20.780Z,24.4
2019-03-17T02:03:10.189Z,24.6
2019-03-17T02:04:00.761Z,24.7
2019-03-17T02:04:50.268Z,24.8
2019-03-17T02:05:41.133Z,25
2019-03-17T02:06:30.413Z,25.1
2019-03-17T02:07:20.711Z,25.3
2019-03-17T02:08:10.476Z,25.4
2019-03-17T02:08:59.453Z,25.5
2019-03-17T02:09:51.234Z,25.6
2019-03-17T02:10:40.545Z,25.7
2019-03-17T02:11:31.019Z,25.8
2019-03-17T02:12:21.642Z,25.6
2019-03-17T02:13:11.198Z,25.5
2019-03-17T02:14:01.197Z,25.4
2019-03-17T02:14:51.291Z,25.3
2019-03-17T02:15:40.473Z,25.3
2019-03-17T02:16:31.145Z,25.2
2019-03-17T02:17:21.438Z,25.1
2019-03-17T02:18:11.215Z,25.1
2019-03-17T02:19:01.825Z,25
2019-03-17T02:19:51.905Z,25
2019-03-17T02:20:41.665Z,24.9
2019-03-17T02:21:32.285Z,24.9
2019-03-17T02:22:24.609Z,24.9
2019-03-17T02:23:11.370Z,24.9
2019-03-17T02:24:01.912Z,24.9
2019-03-17T02:24:51.962Z,24.9
2019-03-17T02:25:42.288Z,24.9
2019-03-17T02:26:32.092Z,24.9
2019-03-17T02:27:22.512Z,24.9
2019-03-17T02:28:13.118Z,24.9
2019-03-17T02:29:02.532Z,24.9
2019-03-17T02:29:52.889Z,24.9
2019-03-17T02:30:42.619Z,24.9
2019-03-17T02:31:33.090Z,24.8
2019-03-17T02:32:22.863Z,24.8
2019-03-17T02:33:12.093Z,24.8
2019-03-17T02:34:02.791Z,24.8
2019-03-17T02:34:52.501Z,24.8
2019-03-17T02:35:47.234Z,24.8
2019-03-17T02:36:33.090Z,24.8
2019-03-17T02:37:22.503Z,24.7
2019-03-17T02:38:13.339Z,24.4
2019-03-17T02:39:02.554Z,24.3
2019-03-17T02:39:53.167Z,24.2
2019-03-17T02:40:43.507Z,24.1
2019-03-17T02:41:33.264Z,24.1
2019-03-17T02:42:23.409Z,24.1
2019-03-17T02:43:12.883Z,24.1
2019-03-17T02:44:03.636Z,24.2
2019-03-17T02:44:53.057Z,24.3
2019-03-17T02:45:43.631Z,24.4
2019-03-17T02:46:33.662Z,24.6
2019-03-17T02:47:23.775Z,24.7
2019-03-17T02:48:12.486Z,24.9
2019-03-17T02:49:04.089Z,25
2019-03-17T02:49:54.399Z,25.1
2019-03-17T02:50:44.181Z,25.3
2019-03-17T02:51:34.247Z,25.4
2019-03-17T02:52:23.757Z,25.5
2019-03-17T02:53:13.798Z,25.6
2019-03-17T02:54:04.706Z,25.7
2019-03-17T02:54:54.756Z,25.8
2019-03-17T02:55:43.786Z,25.8
2019-03-17T02:56:34.573Z,25.7
2019-03-17T02:57:24.777Z,25.6
2019-03-17T02:58:14.763Z,25.5
2019-03-17T02:59:04.055Z,25.4
2019-03-17T02:59:53.980Z,25.3
2019-03-17T03:00:45.179Z,25.3
2019-03-17T03:01:35.255Z,25.2
2019-03-17T03:02:24.480Z,25.1
2019-03-17T03:03:15.409Z,25.1
2019-03-17T03:04:05.463Z,25.1
2019-03-17T03:07:36.380Z,25
2019-03-17T03:08:26.602Z,25
2019-03-17T03:09:16.993Z,25
2019-03-17T03:10:07.545Z,25
2019-03-17T03:10:56.841Z,25
2019-03-17T03:11:46.645Z,25
2019-03-17T03:12:37.540Z,25
2019-03-17T03:13:26.368Z,25
2019-03-17T03:14:16.967Z,25
2019-03-17T03:15:07.692Z,25
2019-03-17T03:15:57.579Z,25
2019-03-17T03:16:46.867Z,24.9
2019-03-17T03:17:37.513Z,24.9
2019-03-17T03:18:26.465Z,24.9
2019-03-17T03:19:17.602Z,24.9
2019-03-17T03:20:07.762Z,24.9
2019-03-17T03:20:57.834Z,24.9
2019-03-17T03:21:47.730Z,24.7
2019-03-17T03:22:38.262Z,24.5
2019-03-17T03:23:27.890Z,24.3
2019-03-17T03:24:18.274Z,24.3
2019-03-17T03:25:08.333Z,24.2
2019-03-17T03:25:58.129Z,24.1
2019-03-17T03:26:47.549Z,24.2
2019-03-17T03:27:38.034Z,24.2
2019-03-17T03:28:28.567Z,24.3
2019-03-17T03:29:18.591Z,24.4
2019-03-17T03:30:07.744Z,24.5
2019-03-17T03:30:58.604Z,24.7
2019-03-17T03:31:48.574Z,24.9
2019-03-17T03:32:39.129Z,25
2019-03-17T03:33:29.346Z,25.1
2019-03-17T03:34:18.842Z,25.3
2019-03-17T03:35:08.740Z,25.4
2019-03-17T03:36:16.766Z,25.5
2019-03-17T03:36:48.245Z,25.6
2019-03-17T03:37:39.206Z,25.7
2019-03-17T03:38:28.986Z,25.8
2019-03-17T03:39:19.063Z,25.8
2019-03-17T03:40:08.971Z,25.7
2019-03-17T03:40:58.615Z,25.6
2019-03-17T03:41:49.168Z,25.5
2019-03-17T03:42:39.266Z,25.4
2019-03-17T03:43:29.576Z,25.3
2019-03-17T03:44:19.444Z,25.3
2019-03-17T03:45:09.158Z,25.2
2019-03-17T03:45:58.625Z,25.2
2019-03-17T03:46:49.282Z,25.1
2019-03-17T03:47:39.781Z,25.1
2019-03-17T03:48:29.370Z,25.1
2019-03-17T03:49:19.250Z,25.1
2019-03-17T03:50:09.755Z,25
2019-03-17T03:50:59.875Z,25
2019-03-17T03:51:49.405Z,25
2019-03-17T03:52:39.196Z,25
2019-03-17T03:53:30.282Z,25
2019-03-17T03:54:20.411Z,25
2019-03-17T03:55:10.148Z,25
2019-03-17T03:55:59.670Z,25
2019-03-17T03:56:49.978Z,25
2019-03-17T03:57:40.447Z,25
2019-03-17T03:58:30.392Z,24.9
2019-03-17T03:59:19.624Z,24.9
2019-03-17T04:00:09.945Z,24.9
2019-03-17T04:01:00.334Z,24.9
2019-03-17T04:01:50.597Z,24.9
2019-03-17T04:02:41.019Z,24.9
2019-03-17T04:03:30.206Z,24.9
2019-03-17T04:04:19.661Z,24.8
2019-03-17T04:05:11.245Z,24.6
2019-03-17T04:06:00.591Z,24.4
2019-03-17T04:06:50.689Z,24.3
2019-03-17T04:07:41.114Z,24.3
2019-03-17T04:08:30.864Z,24.3
2019-03-17T04:09:21.114Z,24.3
2019-03-17T04:10:11.210Z,24.3
2019-03-17T04:11:00.980Z,24.3
2019-03-17T04:11:50.987Z,24.3
2019-03-17T04:12:41.156Z,24.5
2019-03-17T04:13:30.542Z,24.6
2019-03-17T04:14:21.557Z,24.8
2019-03-17T04:15:11.424Z,24.9
2019-03-17T04:16:01.613Z,25.1
2019-03-17T04:16:51.029Z,25.2
2019-03-17T04:17:41.742Z,25.3
2019-03-17T04:18:31.868Z,25.4
2019-03-17T04:19:21.831Z,25.6
2019-03-17T04:20:11.655Z,25.7
2019-03-17T04:21:02.297Z,25.8
2019-03-17T04:21:51.503Z,25.8
2019-03-17T04:22:41.692Z,25.8
2019-03-17T04:23:31.590Z,25.7
2019-03-17T04:24:22.523Z,25.6
2019-03-17T04:25:27.132Z,25.4
2019-03-17T04:26:02.291Z,25.4
2019-03-17T04:26:52.357Z,25.3
2019-03-17T04:27:41.890Z,25.3
2019-03-17T04:28:32.799Z,25.2
2019-03-17T04:29:21.970Z,25.1
2019-03-17T04:30:11.933Z,25.1
2019-03-17T04:31:02.988Z,24.9
2019-03-17T04:31:52.464Z,24.8
2019-03-17T04:32:42.746Z,24.8
2019-03-17T04:33:32.577Z,24.7
2019-03-17T04:34:22.325Z,24.6
2019-03-17T04:35:12.805Z,24.6
2019-03-17T04:36:03.307Z,24.5
2019-03-17T04:36:53.165Z,24.4
2019-03-17T04:37:42.646Z,24.4
2019-03-17T04:38:33.500Z,24.4
2019-03-17T04:39:23.045Z,24.4
2019-03-17T04:40:13.450Z,24.4
2019-03-17T04:41:03.015Z,24.4
2019-03-17T04:41:52.806Z,24.3
2019-03-17T04:42:43.114Z,24.3
2019-03-17T04:43:33.195Z,24.3
2019-03-17T04:44:28.650Z,24.3
2019-03-17T04:45:13.347Z,24.3
2019-03-17T04:46:02.971Z,24.3
2019-03-17T04:46:53.419Z,24.3
2019-03-17T04:47:43.772Z,24.3
2019-03-17T04:48:33.240Z,24.3
2019-03-17T04:49:24.321Z,24.3
2019-03-17T04:50:13.980Z,24.3
2019-03-17T04:51:03.729Z,24.4
2019-03-17T04:51:54.129Z,24.4
2019-03-17T04:52:44.136Z,24.6
2019-03-17T04:53:33.631Z,24.8
2019-03-17T04:54:24.241Z,24.9
2019-03-17T04:55:13.794Z,25.1
2019-03-17T04:56:04.106Z,25.2
2019-03-17T04:56:53.856Z,25.3
2019-03-17T04:57:44.266Z,25.4
2019-03-17T04:58:34.309Z,25.6
2019-03-17T04:59:24.954Z,25.7
2019-03-17T05:00:13.917Z,25.8
2019-03-17T05:01:04.464Z,25.8
2019-03-17T05:01:55.088Z,25.9
2019-03-17T05:02:45.124Z,25.9
2019-03-17T05:03:35.174Z,25.8
2019-03-17T05:04:24.468Z,25.7
2019-03-17T05:05:14.511Z,25.6
2019-03-17T05:06:05.093Z,25.4
2019-03-17T05:07:00.046Z,25.4
2019-03-17T05:07:44.956Z,25.3
2019-03-17T05:08:35.555Z,25.2
2019-03-17T05:09:25.296Z,25.1
2019-03-17T05:10:15.679Z,25.1
2019-03-17T05:11:04.696Z,25
2019-03-17T05:11:55.473Z,24.9
2019-03-17T05:12:45.538Z,24.8
2019-03-17T05:13:35.063Z,24.6
2019-03-17T05:14:25.449Z,24.6
2019-03-17T05:15:15.793Z,24.5
2019-03-17T05:16:05.223Z,24.5
2019-03-17T05:16:55.612Z,24.4
2019-03-17T05:17:45.600Z,24.4
2019-03-17T05:18:35.673Z,24.3
2019-03-17T05:19:26.003Z,24.3
2019-03-17T05:20:16.116Z,24.3
2019-03-17T05:21:05.366Z,24.3
2019-03-17T05:21:55.979Z,24.3
2019-03-17T05:22:46.075Z,24.2
2019-03-17T05:23:36.325Z,24.1
2019-03-17T05:24:25.931Z,24.1
2019-03-17T05:25:16.002Z,24
2019-03-17T05:26:06.600Z,23.9
2019-03-17T05:26:56.259Z,23.9
2019-03-17T05:27:46.399Z,23.9
2019-03-17T05:28:35.927Z,23.8
2019-03-17T05:29:26.534Z,23.8
2019-03-17T05:30:16.129Z,23.8
2019-03-17T05:31:05.509Z,23.8
2019-03-17T05:31:56.912Z,23.9
2019-03-17T05:32:46.724Z,23.9
2019-03-17T05:33:37.287Z,24
2019-03-17T05:34:26.632Z,24.1
2019-03-17T05:35:16.379Z,24.1
2019-03-17T05:36:06.476Z,24.1
2019-03-17T05:37:11.312Z,24.2
2019-03-17T05:37:46.575Z,24.3
2019-03-17T05:38:37.204Z,24.4
2019-03-17T05:39:26.484Z,24.5
2019-03-17T05:40:16.776Z,24.6
2019-03-17T05:41:07.061Z,24.8
2019-03-17T05:41:57.572Z,24.9
2019-03-17T05:42:48.107Z,25.1
2019-03-17T05:43:37.164Z,25.2
2019-03-17T05:44:28.107Z,25.3
2019-03-17T05:45:18.103Z,25.4
2019-03-17T05:46:07.691Z,25.6
2019-03-17T05:46:57.426Z,25.6
2019-03-17T05:47:47.766Z,25.8
2019-03-17T05:48:37.799Z,25.7
2019-03-17T05:49:27.588Z,25.6
2019-03-17T05:50:18.474Z,25.5
2019-03-17T05:51:08.268Z,25.4
2019-03-17T05:51:58.616Z,25.3
2019-03-17T05:52:48.088Z,25.3
2019-03-17T05:53:41.426Z,25.2
2019-03-17T05:54:28.582Z,25.1
2019-03-17T05:55:18.858Z,25.1
2019-03-17T05:56:08.703Z,25
2019-03-17T05:56:58.560Z,24.9
2019-03-17T05:57:48.791Z,24.9
2019-03-17T05:58:38.848Z,24.9
2019-03-17T05:59:28.693Z,24.9
2019-03-17T06:00:18.398Z,24.9
2019-03-17T06:01:08.151Z,24.9
2019-03-17T06:01:58.477Z,24.9
2019-03-17T06:02:48.308Z,24.9
2019-03-17T06:05:36.300Z,24.9
2019-03-17T06:06:25.985Z,24.9
2019-03-17T06:07:25.610Z,24.9
2019-03-17T06:08:06.430Z,24.9
2019-03-17T06:08:56.814Z,24.9
2019-03-17T06:09:45.952Z,24.9
2019-03-17T06:10:36.000Z,24.9
2019-03-17T06:11:26.349Z,24.8
2019-03-17T06:12:16.402Z,24.8
2019-03-17T06:13:07.324Z,24.8
2019-03-17T06:13:58.600Z,24.8
2019-03-17T06:14:46.945Z,24.6
2019-03-17T06:15:36.934Z,24.4
2019-03-17T06:16:26.144Z,24.4
2019-03-17T06:17:17.307Z,24.3
2019-03-17T06:18:06.890Z,24.3
2019-03-17T06:18:57.159Z,24.3
2019-03-17T06:19:47.501Z,24.3
2019-03-17T06:20:37.265Z,24.4
2019-03-17T06:21:27.914Z,24.5
2019-03-17T06:22:16.886Z,24.6
2019-03-17T06:23:07.277Z,24.8
2019-03-17T06:23:56.663Z,24.9
2019-03-17T06:24:47.379Z,25.1
2019-03-17T06:25:37.862Z,25.2
2019-03-17T06:26:27.691Z,25.3
2019-03-17T06:27:17.774Z,25.4
2019-03-17T06:28:08.089Z,25.6
2019-03-17T06:28:57.939Z,25.7
2019-03-17T06:29:47.944Z,25.7
2019-03-17T06:30:38.095Z,25.6
2019-03-17T06:31:28.613Z,25.5
2019-03-17T06:32:18.134Z,25.4
2019-03-17T06:33:08.153Z,25.4
2019-03-17T06:33:58.561Z,25.3
2019-03-17T06:34:48.043Z,25.2
2019-03-17T06:35:38.334Z,25.2
2019-03-17T06:36:29.031Z,25.1
2019-03-17T06:37:31.464Z,25
2019-03-17T06:38:07.969Z,25
2019-03-17T06:38:58.293Z,25
2019-03-17T06:39:48.065Z,24.9
2019-03-17T06:40:38.148Z,24.9
2019-03-17T06:41:28.756Z,24.9
2019-03-17T06:42:18.807Z,24.9
2019-03-17T06:43:08.895Z,24.9
2019-03-17T06:43:58.658Z,24.9
2019-03-17T06:44:49.013Z,24.9
2019-03-17T06:45:39.037Z,24.9
2019-03-17T06:46:27.978Z,24.9
2019-03-17T06:47:18.953Z,24.9
2019-03-17T06:48:09.215Z,24.9
2019-03-17T06:48:59.565Z,24.8
2019-03-17T06:49:49.358Z,24.8
2019-03-17T06:50:38.860Z,24.8
2019-03-17T06:51:29.852Z,24.8
2019-03-17T06:52:19.508Z,24.8
2019-03-17T06:53:09.597Z,24.8
2019-03-17T06:54:03.605Z,24.8
2019-03-17T06:54:49.713Z,24.8
2019-03-17T06:55:39.739Z,24.7
2019-03-17T06:56:29.530Z,24.5
2019-03-17T06:57:19.314Z,24.4
2019-03-17T06:58:08.549Z,24.3
2019-03-17T06:58:59.212Z,24.3
2019-03-17T06:59:50.080Z,24.3
2019-03-17T07:00:39.824Z,24.3
2019-03-17T07:01:30.181Z,24.4
2019-03-17T07:02:20.497Z,24.4
2019-03-17T07:03:10.282Z,24.6
2019-03-17T07:05:36.161Z,24.9
2019-03-17T07:06:25.944Z,25.1
2019-03-17T07:07:16.006Z,25.2
2019-03-17T07:08:06.845Z,25.4
2019-03-17T07:08:56.936Z,25.5
2019-03-17T07:09:46.452Z,25.6
2019-03-17T07:10:36.249Z,25.6
2019-03-17T07:11:26.091Z,25.7
2019-03-17T07:12:16.174Z,25.6
2019-03-17T07:13:06.979Z,25.5
2019-03-17T07:13:56.794Z,25.4
2019-03-17T07:14:47.383Z,25.3
2019-03-17T07:15:36.604Z,25.2
2019-03-17T07:16:26.416Z,25.1
2019-03-17T07:17:19.125Z,25
2019-03-17T07:18:06.292Z,25
2019-03-17T07:18:57.115Z,24.9
2019-03-17T07:19:46.636Z,24.9
2019-03-17T07:20:37.542Z,24.8
2019-03-17T07:21:27.293Z,24.8
2019-03-17T07:22:17.399Z,24.8
2019-03-17T07:23:06.927Z,24.7
2019-03-17T07:23:57.349Z,24.7
2019-03-17T07:24:46.513Z,24.7
2019-03-17T07:25:36.830Z,24.6
2019-03-17T07:26:27.173Z,24.6
2019-03-17T07:27:16.498Z,24.6
2019-03-17T07:28:06.738Z,24.6
2019-03-17T07:28:58.116Z,24.6
2019-03-17T07:29:50.651Z,24.5
2019-03-17T07:30:37.947Z,24.6
2019-03-17T07:31:28.036Z,24.5
2019-03-17T07:32:18.295Z,24.5
2019-03-17T07:33:07.903Z,24.5
2019-03-17T07:33:58.978Z,24.4
2019-03-17T07:34:47.985Z,24.4
2019-03-17T07:35:38.583Z,24.4
2019-03-17T07:36:28.350Z,24.4
2019-03-17T07:37:18.132Z,24.4
2019-03-17T07:38:08.485Z,24.4
2019-03-17T07:38:57.166Z,24.4
2019-03-17T07:39:48.034Z,24.4
2019-03-17T07:40:38.736Z,24.3
2019-03-17T07:41:28.940Z,24.3
2019-03-17T07:42:19.049Z,24.3
2019-03-17T07:43:08.822Z,24.3
2019-03-17T07:44:13.305Z,24.2
2019-03-17T07:44:48.747Z,24.2
2019-03-17T07:45:39.334Z,24.2
2019-03-17T07:46:43.821Z,24.2
2019-03-17T07:47:19.187Z,24.1
2019-03-17T07:48:09.482Z,24.1
2019-03-17T07:48:59.847Z,24.1
2019-03-17T07:49:49.947Z,24.1
2019-03-17T07:50:38.664Z,24.1
2019-03-17T07:51:29.734Z,24.1
2019-03-17T07:52:19.317Z,24
2019-03-17T07:53:08.716Z,24
2019-03-17T07:53:59.604Z,23.9
2019-03-17T07:54:48.869Z,23.9
2019-03-17T07:55:39.329Z,23.9
2019-03-17T07:56:30.089Z,23.9
2019-03-17T07:57:19.105Z,23.9
2019-03-17T07:58:09.146Z,23.8
2019-03-17T07:58:58.783Z,23.8
2019-03-17T07:59:49.836Z,23.8
2019-03-17T08:00:38.769Z,23.8
2019-03-17T08:01:30.254Z,23.8
2019-03-17T08:02:19.263Z,23.7
2019-03-17T08:03:09.625Z,23.7
2019-03-17T08:04:00.621Z,23.7
2019-03-17T08:04:53.749Z,23.6
2019-03-17T08:05:40.476Z,23.6
2019-03-17T08:06:30.278Z,23.6
2019-03-17T08:07:22.694Z,23.6
2019-03-17T08:08:17.073Z,23.6
2019-03-17T08:09:00.981Z,23.5
2019-03-17T08:09:51.591Z,23.4
2019-03-17T08:10:55.576Z,23.4
2019-03-17T08:11:31.478Z,23.4
2019-03-17T08:12:20.635Z,23.4
2019-03-17T08:13:11.275Z,23.4
2019-03-17T08:14:00.495Z,23.4
2019-03-17T08:14:51.382Z,23.3
2019-03-17T08:15:41.281Z,23.3
2019-03-17T08:16:30.958Z,23.3
2019-03-17T08:17:21.562Z,23.3
2019-03-17T08:18:11.328Z,23.3
2019-03-17T08:19:01.703Z,23.2
2019-03-17T08:19:51.259Z,23.2
2019-03-17T08:20:41.513Z,23.1
2019-03-17T08:21:31.560Z,23.1
2019-03-17T08:22:21.395Z,23.1
2019-03-17T08:23:11.710Z,23.1
2019-03-17T10:06:35.264Z,21.1
2019-03-17T10:07:25.629Z,21.1
2019-03-17T10:08:16.148Z,21.1
2019-03-17T10:09:06.567Z,21.1
2019-03-17T10:09:56.248Z,21
2019-03-17T10:10:46.097Z,21
2019-03-17T10:11:35.926Z,21
2019-03-17T10:12:26.556Z,21
2019-03-17T10:13:17.122Z,21
2019-03-17T10:14:06.551Z,21
2019-03-17T10:14:56.921Z,20.9
2019-03-17T10:15:46.109Z,21
2019-03-17T10:16:36.488Z,21
2019-03-17T10:17:26.924Z,20.9
2019-03-17T10:18:16.907Z,20.9
2019-03-17T10:19:06.931Z,20.9
2019-03-17T10:19:56.208Z,20.9
2019-03-17T10:20:44.996Z,20.9
2019-03-17T10:21:37.180Z,20.9
2019-03-17T10:22:27.503Z,20.9
2019-03-17T10:23:16.931Z,20.9
2019-03-17T10:24:07.034Z,20.9
2019-03-17T10:24:57.315Z,20.9
2019-03-17T10:25:47.158Z,20.9
2019-03-17T10:26:37.161Z,20.9
2019-03-17T10:27:27.265Z,20.9
2019-03-17T10:28:17.410Z,20.9
2019-03-17T10:29:21.753Z,20.9
2019-03-17T10:29:58.321Z,20.8
2019-03-17T10:30:48.015Z,20.9
2019-03-17T10:31:38.363Z,20.8
2019-03-17T10:32:28.141Z,20.8
2019-03-17T10:33:18.210Z,20.8
2019-03-17T10:34:08.029Z,20.8
2019-03-17T10:34:57.627Z,20.8
2019-03-17T10:35:48.393Z,20.8
2019-03-17T10:36:37.901Z,20.8
2019-03-17T10:37:27.970Z,20.8
2019-03-17T10:38:18.832Z,20.8
2019-03-17T10:39:19.459Z,20.8
2019-03-17T10:39:58.940Z,20.8
2019-03-17T10:40:48.020Z,20.8
2019-03-17T10:41:37.487Z,20.8
2019-03-17T10:42:28.187Z,20.8
2019-03-17T10:43:18.487Z,20.8
2019-03-17T10:44:08.712Z,20.8
2019-03-17T10:44:57.457Z,20.8
2019-03-17T10:45:48.622Z,20.8
2019-03-17T10:46:37.864Z,20.8
2019-03-17T10:47:28.998Z,20.8
2019-03-17T10:48:18.157Z,20.8
2019-03-17T10:49:08.100Z,20.8
2019-03-17T10:49:59.669Z,20.8
2019-03-17T10:50:57.257Z,20.7
2019-03-17T10:51:39.332Z,20.7
2019-03-17T10:52:29.225Z,20.8
2019-03-17T10:53:18.872Z,20.8
2019-03-17T10:54:09.006Z,20.7
2019-03-17T10:54:58.751Z,20.8
2019-03-17T10:55:48.786Z,20.7
2019-03-17T10:56:38.854Z,20.7
2019-03-17T10:57:29.189Z,20.7
2019-03-17T10:58:19.541Z,20.7
2019-03-17T10:59:09.297Z,20.7
2019-03-17T10:59:58.898Z,20.7
2019-03-17T11:00:48.869Z,20.6
2019-03-17T11:01:38.966Z,20.6
2019-03-17T11:02:30.104Z,20.7
2019-03-17T11:03:19.033Z,20.7
2019-03-17T11:04:09.981Z,20.6
2019-03-17T11:04:59.238Z,20.7
2019-03-17T11:05:49.511Z,20.6
2019-03-17T11:06:39.293Z,20.6
2019-03-17T11:07:30.133Z,20.6
2019-03-17T11:08:19.896Z,20.6
2019-03-17T11:09:25.750Z,20.6
2019-03-17T11:10:00.013Z,20.6
2019-03-17T11:10:50.366Z,20.6
2019-03-17T11:11:40.666Z,20.6
2019-03-17T11:12:31.082Z,20.6
2019-03-17T11:13:20.534Z,20.6
2019-03-17T11:14:10.193Z,20.6
2019-03-17T11:15:00.387Z,20.6
2019-03-17T11:15:50.968Z,20.6
2019-03-17T11:16:41.042Z,20.6
2019-03-17T11:17:31.641Z,20.6
2019-03-17T11:18:21.368Z,20.6
2019-03-17T11:19:11.210Z,20.6
2019-03-17T11:20:00.596Z,20.6
2019-03-17T11:20:50.587Z,20.6
2019-03-17T11:21:41.148Z,20.6
2019-03-17T11:22:30.050Z,20.6
2019-03-17T11:23:21.556Z,20.6
2019-03-17T11:24:10.773Z,20.6
2019-03-17T11:25:01.503Z,20.6
2019-03-17T11:25:51.146Z,20.6
2019-03-17T11:26:41.072Z,20.6
2019-03-17T11:27:32.120Z,20.6
2019-03-17T11:28:22.263Z,20.6
2019-03-17T11:29:12.294Z,20.6
2019-03-17T11:30:02.316Z,20.6
2019-03-17T11:30:52.127Z,20.5
2019-03-17T11:31:41.847Z,20.6
2019-03-17T11:32:32.427Z,20.5
2019-03-17T11:33:21.989Z,20.5
2019-03-17T11:34:12.077Z,20.5
2019-03-17T11:35:02.101Z,20.6
2019-03-17T11:35:52.696Z,20.5
2019-03-17T11:36:42.284Z,20.5
2019-03-17T11:37:32.632Z,20.5
2019-03-17T11:38:22.128Z,20.5
2019-03-17T11:39:12.806Z,20.5
2019-03-17T11:40:01.994Z,20.5
2019-03-17T11:40:52.507Z,20.5
2019-03-17T11:41:42.273Z,20.5
2019-03-17T11:42:32.681Z,20.5
2019-03-17T11:43:22.981Z,20.5
2019-03-17T11:44:13.400Z,20.5
2019-03-17T11:45:02.851Z,20.4
2019-03-17T11:45:53.451Z,20.5
2019-03-17T11:46:42.358Z,20.5
2019-03-17T11:47:32.787Z,20.5
2019-03-17T11:48:23.866Z,20.5
2019-03-17T11:49:13.364Z,20.5
2019-03-17T11:50:03.318Z,20.4
2019-03-17T11:50:53.424Z,20.5
2019-03-17T11:51:43.886Z,20.5
2019-03-17T11:52:33.041Z,20.4
2019-03-17T11:53:23.408Z,20.4
2019-03-17T11:54:13.811Z,20.4
2019-03-17T11:55:03.911Z,20.4
2019-03-17T11:55:53.900Z,20.4
2019-03-17T11:56:42.823Z,20.5
2019-03-17T11:57:33.433Z,20.4
2019-03-17T11:58:24.580Z,20.4
2019-03-17T11:59:14.391Z,20.4
2019-03-17T12:00:04.209Z,20.4
2019-03-17T12:00:53.405Z,20.4
2019-03-17T12:01:43.460Z,20.4
2019-03-17T12:02:33.895Z,20.4
2019-03-17T12:03:23.828Z,20.4
2019-03-17T12:04:13.889Z,20.4
2019-03-17T12:06:35.942Z,20.4
2019-03-17T12:07:25.781Z,20.4
2019-03-17T12:08:16.431Z,20.4
2019-03-17T12:09:09.034Z,20.4
2019-03-17T12:09:57.436Z,20.4
2019-03-17T12:10:46.229Z,20.4
2019-03-17T12:11:35.778Z,20.4
2019-03-17T12:12:41.511Z,20.4
2019-03-17T12:13:15.851Z,20.4
2019-03-17T12:14:09.732Z,20.4
2019-03-17T12:14:55.867Z,20.4
2019-03-17T12:15:46.601Z,20.4
2019-03-17T12:16:36.295Z,20.4
2019-03-17T12:17:26.726Z,20.4
2019-03-17T12:18:16.238Z,20.4
2019-03-17T12:19:07.353Z,20.4
2019-03-17T12:19:57.037Z,20.4
2019-03-17T12:20:46.956Z,20.4
2019-03-17T12:21:37.060Z,20.4
2019-03-17T12:22:27.038Z,20.4
2019-03-17T12:23:15.740Z,20.4
2019-03-17T12:24:06.948Z,20.4
2019-03-17T12:24:57.715Z,20.4
2019-03-17T12:25:47.305Z,20.4
2019-03-17T12:26:37.567Z,20.4
2019-03-17T12:27:27.920Z,20.4
2019-03-17T12:28:17.734Z,20.4
2019-03-17T12:29:07.304Z,20.4
2019-03-17T12:29:57.615Z,20.4
2019-03-17T12:30:47.120Z,20.4
2019-03-17T12:31:38.062Z,20.4
2019-03-17T12:32:27.545Z,20.4
2019-03-17T12:33:17.953Z,20.4
2019-03-17T12:34:07.547Z,20.4
2019-03-17T12:34:57.940Z,20.3
2019-03-17T12:35:48.062Z,20.4
2019-03-17T12:36:37.820Z,20.3
2019-03-17T12:37:27.350Z,20.4
2019-03-17T12:38:17.959Z,20.4
2019-03-17T12:39:08.562Z,20.4
2019-03-17T12:40:10.137Z,20.4
2019-03-17T12:40:47.880Z,20.4
2019-03-17T12:41:40.862Z,20.4
2019-03-17T12:42:28.271Z,20.4
2019-03-17T12:43:18.567Z,20.3
2019-03-17T12:44:08.699Z,20.3
2019-03-17T12:44:58.152Z,20.4
2019-03-17T12:45:48.748Z,20.4
2019-03-17T12:46:38.788Z,20.3
2019-03-17T12:47:28.291Z,20.4
2019-03-17T12:48:18.926Z,20.4
2019-03-17T12:49:08.707Z,20.3
2019-03-17T12:49:59.048Z,20.3
2019-03-17T12:50:49.138Z,20.3
2019-03-17T12:51:39.149Z,20.3
2019-03-17T12:52:28.969Z,20.3
2019-03-17T12:53:18.749Z,20.3
2019-03-17T12:54:08.611Z,20.4
2019-03-17T12:54:59.114Z,20.3
2019-03-17T12:55:48.938Z,20.3
2019-03-17T12:56:39.288Z,20.4
2019-03-17T12:57:28.471Z,20.4
2019-03-17T12:58:22.479Z,20.4
2019-03-17T12:59:08.916Z,20.4
2019-03-17T12:59:59.853Z,20.4